Pagrindinis puslapis
METAR-TAF:

METAR-TAF

Oro uostai :

Mountain Village, Aliaska, Jungtinės Amerikos Valstijos

platuma: 62-05-43N, ilguma: 163-40-55W, Aukštis: 103 m

Dabartinis oras

Ataskaita buvo paskelbta 1 valandą ir 4 minutes, ne 21:02 UTC
Vėjas 16 kt iš Rytų/Pietryčių su gūsio iki 22 kt
Temperatūra 3°C
Drėgmė 93%
Slėgis 999 hPa
Matomumas: 12.9 km
Apsiniaukę ne aukštis 2600 ft
lietus

METAR: PAMO 212102Z AUTO 12016G22KT 8SM -RA OVC026 03/02 A2950 RMK AO2 SLP992 P0000 60000 T00280017 56022

Laikas: 14:06 (22:06 UTC)


TAF: trūkstamas

Orai ataskaitas ir orų prognozės (METAR, TAF).

turimą stotys yra geltonos ir raudonos taškus žemėlapyje.

Perkelti pele per norėdami pamatyti stoties vardą.

Tada spustelėkite, norėdami matyti oro stebėjimo ir prognozės.

Norėdami pakeisti žemėlapį: spustelėkite ant žalios mygtukų su juodo kryžiaus žemyn,; žalią mygtuką su brūkšneliu, jei norite nutolinti; arba žalių rodyklių gretimoms žemėlapius.


METAR-TAF: